createdAt,value
2019-01-26T00:03:48.827Z,-3
2019-01-26T00:08:48.831Z,-3.1
2019-01-26T00:13:48.838Z,-3.2
2019-01-26T00:18:48.838Z,-3.3
2019-01-26T00:23:48.841Z,-3.3
2019-01-26T00:28:48.857Z,-3.3
2019-01-26T00:33:48.859Z,-3.3
2019-01-26T00:38:48.858Z,-3.2
2019-01-26T00:43:48.857Z,-3.3
2019-01-26T00:48:48.961Z,-3.3
2019-01-26T00:53:48.856Z,-3.4
2019-01-26T00:58:48.845Z,-3.4
2019-01-26T01:03:48.856Z,-3.5
2019-01-26T01:08:48.884Z,-3.6
2019-01-26T01:13:48.871Z,-3.7
2019-01-26T01:18:48.950Z,-3.8
2019-01-26T01:23:49.024Z,-3.9
2019-01-26T01:28:48.871Z,-3.9
2019-01-26T01:33:48.874Z,-4
2019-01-26T01:38:48.875Z,-4.1
2019-01-26T01:43:48.884Z,-4.1
2019-01-26T01:48:48.889Z,-4.2
2019-01-26T01:53:49.019Z,-4.1
2019-01-26T01:58:48.905Z,-4.1
2019-01-26T02:03:49.020Z,-4.2
2019-01-26T02:08:48.895Z,-4.1
2019-01-26T02:13:48.990Z,-4.1
2019-01-26T02:18:48.898Z,-4.1
2019-01-26T02:23:48.898Z,-4.1
2019-01-26T02:28:48.913Z,-4.1
2019-01-26T02:33:49.146Z,-4.1
2019-01-26T02:38:48.862Z,-4.1
2019-01-26T02:43:48.932Z,-4.1
2019-01-26T02:48:48.921Z,-4.1
2019-01-26T02:53:48.912Z,-4
2019-01-26T02:58:48.923Z,-4
2019-01-26T03:03:49.141Z,-3.9
2019-01-26T03:08:48.938Z,-3.8
2019-01-26T03:13:48.914Z,-3.8
2019-01-26T03:18:49.045Z,-3.8
2019-01-26T03:23:48.935Z,-3.8
2019-01-26T03:28:48.932Z,-3.7
2019-01-26T03:33:48.946Z,-3.7
2019-01-26T03:38:49.175Z,-3.6
2019-01-26T03:43:48.947Z,-3.3
2019-01-26T03:48:49.154Z,-3
2019-01-26T03:53:48.942Z,-2.8
2019-01-26T03:58:48.954Z,-2.4
2019-01-26T04:03:48.944Z,-2.1
2019-01-26T04:08:49.191Z,-2
2019-01-26T04:13:48.913Z,-1.9
2019-01-26T04:18:49.152Z,-1.8
2019-01-26T04:23:48.963Z,-1.7
2019-01-26T04:28:48.969Z,-1.6
2019-01-26T04:33:48.958Z,-1.5
2019-01-26T04:38:48.964Z,-1.4
2019-01-26T04:43:48.974Z,-1.3
2019-01-26T04:48:48.985Z,-1.3
2019-01-26T04:53:48.988Z,-1.3
2019-01-26T04:58:49.000Z,-1.3
2019-01-26T05:03:48.967Z,-1.3
2019-01-26T05:08:48.987Z,-1.3
2019-01-26T05:13:48.998Z,-1.3
2019-01-26T05:18:49.131Z,-1.3
2019-01-26T05:23:49.162Z,-1.3
2019-01-26T05:28:48.952Z,-1.3
2019-01-26T05:33:48.987Z,-1.4
2019-01-26T05:38:49.007Z,-1.4
2019-01-26T05:43:49.218Z,-1.4
2019-01-26T05:48:49.008Z,-1.4
2019-01-26T05:53:48.999Z,-1.4
2019-01-26T05:58:49.029Z,-1.5
2019-01-26T06:03:49.012Z,-1.5
2019-01-26T06:08:49.004Z,-1.5
2019-01-26T06:13:49.021Z,-1.3
2019-01-26T06:18:49.041Z,-1.2
2019-01-26T06:23:49.020Z,-1.2
2019-01-26T06:28:49.020Z,-1
2019-01-26T06:33:49.035Z,-1
2019-01-26T06:38:49.018Z,-1
2019-01-26T06:43:49.048Z,-0.9
2019-01-26T06:48:49.017Z,-1
2019-01-26T06:53:49.044Z,-1
2019-01-26T06:58:49.045Z,-1
2019-01-26T07:03:49.068Z,-1
2019-01-26T07:08:49.059Z,-1
2019-01-26T07:13:49.069Z,-1
2019-01-26T07:18:49.069Z,-1
2019-01-26T07:23:49.054Z,-1
2019-01-26T07:28:49.065Z,-1
2019-01-26T07:33:49.065Z,-1
2019-01-26T07:38:49.073Z,-1
2019-01-26T07:43:49.098Z,-0.9
2019-01-26T07:48:49.063Z,-0.9
2019-01-26T07:53:49.192Z,-0.9
2019-01-26T07:58:49.079Z,-0.9
2019-01-26T08:03:49.079Z,-0.9
2019-01-26T08:08:49.116Z,-0.9
2019-01-26T08:13:49.147Z,-0.8
2019-01-26T08:18:49.113Z,-0.8
2019-01-26T08:23:49.086Z,-0.8
2019-01-26T08:28:49.081Z,-0.7
2019-01-26T08:33:49.247Z,-0.7
2019-01-26T08:38:49.128Z,-0.7
2019-01-26T08:43:49.089Z,-0.6
2019-01-26T08:48:49.433Z,-0.6
2019-01-26T08:53:49.094Z,-0.6
2019-01-26T08:58:49.108Z,-0.5
2019-01-26T09:03:49.108Z,-0.5
2019-01-26T09:08:49.103Z,-0.5
2019-01-26T09:13:49.123Z,-0.4
2019-01-26T09:18:49.125Z,-0.4
2019-01-26T09:23:49.130Z,-0.3
2019-01-26T09:28:49.127Z,-0.2
2019-01-26T09:33:49.226Z,-0.1
2019-01-26T09:38:49.747Z,-0.1
2019-01-26T09:43:49.136Z,0
2019-01-26T09:48:49.144Z,0
2019-01-26T09:53:49.140Z,0
2019-01-26T09:58:49.116Z,0.1
2019-01-26T10:03:49.444Z,0.1
2019-01-26T10:08:49.128Z,0.2
2019-01-26T10:13:49.141Z,0.3
2019-01-26T10:18:53.458Z,0.4
2019-01-26T10:23:49.454Z,0.6
2019-01-26T10:28:49.163Z,0.6
2019-01-26T10:33:49.212Z,0.7
2019-01-26T10:38:49.342Z,0.9
2019-01-26T10:43:49.182Z,0.9
2019-01-26T10:48:49.173Z,1
2019-01-26T10:53:49.179Z,1.1
2019-01-26T10:58:49.222Z,1.1
2019-01-26T11:03:49.321Z,1.2
2019-01-26T11:08:49.195Z,1.2
2019-01-26T11:13:49.245Z,1.3
2019-01-26T11:18:49.240Z,1.3
2019-01-26T11:23:49.183Z,1.4
2019-01-26T11:28:49.209Z,1.4
2019-01-26T11:33:49.223Z,1.4
2019-01-26T11:38:49.212Z,1.5
2019-01-26T11:43:49.567Z,1.5
2019-01-26T11:48:49.232Z,1.5
2019-01-26T11:53:49.197Z,1.6
2019-01-26T11:58:49.249Z,1.7
2019-01-26T12:03:49.218Z,1.8
2019-01-26T12:08:49.227Z,1.8
2019-01-26T12:13:49.217Z,1.9
2019-01-26T12:18:49.231Z,1.9
2019-01-26T12:23:49.222Z,2
2019-01-26T12:28:49.212Z,2.1
2019-01-26T12:33:49.234Z,2.1
2019-01-26T12:38:49.228Z,2.2
2019-01-26T12:43:49.243Z,2.3
2019-01-26T12:48:49.226Z,2.5
2019-01-26T12:53:49.226Z,2.6
2019-01-26T12:58:49.746Z,2.7
2019-01-26T13:03:49.241Z,2.9
2019-01-26T13:08:49.254Z,3
2019-01-26T13:13:49.247Z,3
2019-01-26T13:18:49.267Z,3.1
2019-01-26T13:23:49.243Z,3.2
2019-01-26T13:28:49.254Z,3.2
2019-01-26T13:33:49.284Z,3.3
2019-01-26T13:38:49.275Z,3.4
2019-01-26T13:43:49.259Z,3.4
2019-01-26T13:48:49.376Z,3.4
2019-01-26T13:53:49.499Z,3.5
2019-01-26T13:58:49.279Z,3.5
2019-01-26T14:03:49.277Z,3.5
2019-01-26T14:08:49.257Z,3.6
2019-01-26T14:13:49.292Z,3.7
2019-01-26T14:18:49.307Z,3.7
2019-01-26T14:23:49.506Z,3.8
2019-01-26T14:28:49.291Z,3.8
2019-01-26T14:33:49.456Z,3.8
2019-01-26T14:38:49.307Z,3.8
2019-01-26T14:43:49.336Z,3.9
2019-01-26T14:48:49.311Z,3.9
2019-01-26T14:53:49.293Z,3.9
2019-01-26T14:58:49.315Z,3.9
2019-01-26T15:03:49.341Z,3.9
2019-01-26T15:08:49.313Z,3.8
2019-01-26T15:13:49.329Z,3.8
2019-01-26T15:18:49.306Z,3.8
2019-01-26T15:23:49.318Z,3.8
2019-01-26T15:28:49.296Z,3.8
2019-01-26T15:33:49.318Z,3.8
2019-01-26T15:38:49.330Z,3.8
2019-01-26T15:43:49.346Z,3.8
2019-01-26T15:48:49.392Z,3.9
2019-01-26T15:53:49.347Z,3.8
2019-01-26T15:58:49.326Z,3.8
2019-01-26T16:03:49.357Z,3.9
2019-01-26T16:08:49.568Z,3.9
2019-01-26T16:13:49.469Z,3.9
2019-01-26T16:18:49.391Z,3.9
2019-01-26T16:23:49.378Z,3.9
2019-01-26T16:28:49.366Z,3.9
2019-01-26T16:33:49.365Z,4
2019-01-26T16:38:49.371Z,4
2019-01-26T16:43:49.363Z,4
2019-01-26T16:48:52.154Z,4
2019-01-26T16:53:49.443Z,4.1
2019-01-26T16:58:50.522Z,4.1
2019-01-26T17:03:49.369Z,4.1
2019-01-26T17:08:49.422Z,4.1
2019-01-26T17:13:49.442Z,4.1
2019-01-26T17:18:49.423Z,4.1
2019-01-26T17:23:49.406Z,4.2
2019-01-26T17:28:49.409Z,4.1
2019-01-26T17:33:49.383Z,4.1
2019-01-26T17:38:49.403Z,4.2
2019-01-26T17:43:49.416Z,4.2
2019-01-26T17:48:49.393Z,4.2
2019-01-26T17:53:49.393Z,4.3
2019-01-26T17:58:49.404Z,4.3
2019-01-26T18:03:49.422Z,4.2
2019-01-26T18:08:49.407Z,4.2
2019-01-26T18:13:49.530Z,4.3
2019-01-26T18:18:49.493Z,4.2
2019-01-26T18:23:49.536Z,4.1
2019-01-26T18:28:49.459Z,4.1
2019-01-26T18:33:49.569Z,4.1
2019-01-26T18:38:49.614Z,4.2
2019-01-26T18:43:49.672Z,4.1
2019-01-26T18:48:49.427Z,4.1
2019-01-26T18:53:49.500Z,4
2019-01-26T18:58:50.078Z,4
2019-01-26T19:03:49.733Z,4
2019-01-26T19:08:49.512Z,4
2019-01-26T19:13:49.607Z,4
2019-01-26T19:18:49.797Z,4
2019-01-26T19:23:49.464Z,4.1
2019-01-26T19:28:49.447Z,4.1
2019-01-26T19:33:50.335Z,4
2019-01-26T19:38:49.482Z,4
2019-01-26T19:43:49.637Z,4
2019-01-26T19:48:49.474Z,4
2019-01-26T19:53:49.466Z,4
2019-01-26T19:58:49.663Z,4
2019-01-26T20:03:50.027Z,4
2019-01-26T20:08:50.151Z,3.9
2019-01-26T20:13:49.791Z,3.9
2019-01-26T20:18:49.678Z,3.8
2019-01-26T20:23:49.894Z,3.8
2019-01-26T20:28:49.689Z,3.8
2019-01-26T20:33:49.700Z,3.7
2019-01-26T20:38:49.787Z,3.7
2019-01-26T20:43:49.786Z,3.7
2019-01-26T20:48:49.747Z,3.7
2019-01-26T20:53:49.557Z,3.6
2019-01-26T20:58:49.496Z,3.6
2019-01-26T21:03:49.524Z,3.6
2019-01-26T21:08:49.626Z,3.5
2019-01-26T21:13:49.822Z,3.6
2019-01-26T21:18:49.533Z,3.6
2019-01-26T21:23:49.678Z,3.6
2019-01-26T21:28:49.490Z,3.6
2019-01-26T21:33:49.672Z,3.6
2019-01-26T21:38:49.735Z,3.6
2019-01-26T21:43:49.769Z,3.6
2019-01-26T21:48:49.510Z,3.7
2019-01-26T21:53:49.504Z,3.6
2019-01-26T21:58:49.958Z,3.7
2019-01-26T22:03:49.669Z,3.6
2019-01-26T22:08:49.753Z,3.6
2019-01-26T22:13:49.685Z,3.5
2019-01-26T22:18:49.538Z,3.6
2019-01-26T22:23:49.708Z,3.6
2019-01-26T22:28:49.547Z,3.7
2019-01-26T22:33:49.802Z,3.7
2019-01-26T22:38:49.714Z,3.7
2019-01-26T22:43:49.790Z,3.7
2019-01-26T22:48:49.684Z,3.7
2019-01-26T22:53:49.707Z,3.8
2019-01-26T22:58:49.766Z,4
2019-01-26T23:03:49.570Z,4.2
2019-01-26T23:08:49.581Z,4.3
2019-01-26T23:13:49.570Z,4.4
2019-01-26T23:18:49.604Z,4.4
2019-01-26T23:23:49.560Z,4.5
2019-01-26T23:28:49.578Z,4.5
2019-01-26T23:33:49.586Z,4.6
2019-01-26T23:38:49.610Z,4.6
2019-01-26T23:43:49.609Z,4.5
2019-01-26T23:48:49.599Z,4.5
2019-01-26T23:53:49.592Z,4.5
2019-01-26T23:58:49.594Z,4.5
